createdAt,value
2023-02-26T00:11:11.068Z,64.59
2023-02-26T00:26:12.777Z,63.05
2023-02-26T00:41:15.804Z,65.04
2023-02-26T00:56:17.470Z,61.89
2023-02-26T01:11:19.379Z,61.90
2023-02-26T01:26:28.010Z,61.71
2023-02-26T01:41:36.165Z,60.17
2023-02-26T01:56:39.577Z,61.58
2023-02-26T02:11:56.585Z,59.91
2023-02-26T02:27:29.713Z,59.05
2023-02-26T02:42:31.310Z,58.97
2023-02-26T02:57:46.493Z,56.87
2023-02-26T03:12:48.165Z,58.11
2023-02-26T03:27:57.345Z,58.10
2023-02-26T03:43:10.634Z,58.44
2023-02-26T03:58:12.453Z,58.49
2023-02-26T04:13:14.149Z,57.67
2023-02-26T04:28:16.037Z,57.42
2023-02-26T04:43:18.299Z,56.69
2023-02-26T04:58:20.436Z,55.07
2023-02-26T05:13:22.614Z,55.15
2023-02-26T05:28:26.027Z,53.75
2023-02-26T05:43:28.102Z,51.01
2023-02-26T05:58:31.419Z,49.20
2023-02-26T06:13:33.093Z,47.92
2023-02-26T06:28:34.929Z,47.19
2023-02-26T06:43:36.561Z,46.37
2023-02-26T06:58:38.585Z,44.10
2023-02-26T07:13:40.648Z,44.91
2023-02-26T07:28:42.268Z,43.37
2023-02-26T07:43:44.647Z,42.13
2023-02-26T07:58:46.415Z,43.32
2023-02-26T08:13:48.072Z,42.84
2023-02-26T08:28:50.583Z,43.05
2023-02-26T08:43:52.317Z,42.61
2023-02-26T08:58:54.098Z,42.32
2023-02-26T09:13:55.797Z,42.30
2023-02-26T09:28:57.492Z,41.97
2023-02-26T09:44:21.951Z,40.83
2023-02-26T09:59:23.652Z,40.42
2023-02-26T10:14:43.410Z,40.54
2023-02-26T10:30:15.601Z,38.72
2023-02-26T10:45:28.087Z,39.79
2023-02-26T11:00:29.865Z,40.45
2023-02-26T11:15:32.466Z,40.40
2023-02-26T11:30:38.878Z,41.61
2023-02-26T11:45:44.649Z,44.70
2023-02-26T12:00:47.164Z,46.87
2023-02-26T12:15:58.697Z,47.45
2023-02-26T12:31:17.497Z,50.30
2023-02-26T12:46:39.712Z,51.28
2023-02-26T13:02:01.446Z,50.40
2023-02-26T13:17:03.360Z,54.22
2023-02-26T13:32:14.575Z,56.44
2023-02-26T13:47:48.041Z,52.76
2023-02-26T14:02:54.044Z,50.95
2023-02-26T14:18:05.563Z,49.29
2023-02-26T14:33:10.197Z,47.00
2023-02-26T14:48:16.446Z,47.06
2023-02-26T15:03:48.235Z,45.93
2023-02-26T15:19:06.516Z,49.01
2023-02-26T15:34:12.696Z,53.41
2023-02-26T15:49:39.514Z,53.89
2023-02-26T16:04:43.051Z,55.85
2023-02-26T16:19:47.641Z,55.48
2023-02-26T16:34:52.088Z,54.80
2023-02-26T16:49:53.925Z,54.22
2023-02-26T17:05:01.153Z,58.59
2023-02-26T17:20:02.802Z,56.15
2023-02-26T17:35:06.198Z,57.02
2023-02-26T17:50:31.969Z,58.03
2023-02-26T18:05:38.950Z,60.83
2023-02-26T18:20:41.449Z,64.03
2023-02-26T18:35:47.937Z,67.23
2023-02-26T18:50:50.198Z,72.15
2023-02-26T19:06:02.732Z,79.66
2023-02-26T19:21:05.938Z,80.90
2023-02-26T19:36:08.147Z,68.75
2023-02-26T19:51:10.175Z,66.56
2023-02-26T20:06:12.757Z,66.63
2023-02-26T20:21:14.441Z,63.81
2023-02-26T20:36:17.725Z,65.19
2023-02-26T20:51:19.369Z,63.48
2023-02-26T21:06:22.445Z,64.31
2023-02-26T21:21:24.361Z,64.61
2023-02-26T21:36:26.344Z,67.35
2023-02-26T21:51:28.410Z,65.87
2023-02-26T22:06:30.342Z,64.65
2023-02-26T22:21:31.957Z,75.86
2023-02-26T22:36:36.311Z,68.02
2023-02-26T22:51:37.982Z,70.65
2023-02-26T23:06:39.617Z,70.75
2023-02-26T23:21:41.264Z,70.73
2023-02-26T23:36:42.981Z,70.88
2023-02-26T23:51:46.048Z,68.79
